Time;durP1;ratioP1;P1;durP2;ratioP2;P2;SDS_P1;SDS_P2;PMS_P1;PMS_P2;Temp;Humidity;BMP_temperature;BMP_pressure;BME280_temperature;BME280_humidity;BME280_pressure;Samples;Min_cycle;Max_cycle;Signal;HPM_P1;HPM_P2
2021/03/23 00:02:09;;;;;;;10.25;6.80;;;8.40;86.40;;;;;;5055998;28;20070;-83
2021/03/23 00:08:30;;;;;;;12.75;7.78;;;8.40;86.10;;;;;;5055676;28;20422;-83
2021/03/23 00:15:02;;;;;;;9.75;6.93;;;8.30;86.20;;;;;;5055687;28;20425;-82
2021/03/23 00:40:30;;;;;;;8.60;5.47;;;8.30;86.90;;;;;;5055068;28;20553;-83
2021/03/23 01:24:10;;;;;;;11.52;6.75;;;8.10;87.70;;;;;;5058512;28;20035;-83
2021/03/23 02:14:38;;;;;;;11.07;7.65;;;7.60;87.20;;;;;;5073826;28;20490;-83
2021/03/23 02:21:08;;;;;;;16.15;9.43;;;7.50;87.50;;;;;;5073558;28;20078;-83
2021/03/23 02:35:36;;;;;;;16.35;10.80;;;7.50;87.80;;;;;;5084179;28;20055;-83
2021/03/23 02:47:04;;;;;;;22.48;12.45;;;7.50;88.30;;;;;;5054618;28;20033;-83
2021/03/23 02:57:50;;;;;;;17.90;10.40;;;7.50;88.50;;;;;;5054260;28;20036;-83
2021/03/23 03:04:36;;;;;;;16.00;10.82;;;7.50;88.60;;;;;;5053055;28;20063;-83
2021/03/23 03:10:42;;;;;;;16.83;10.50;;;7.60;88.60;;;;;;5056798;28;20431;-83
2021/03/23 03:20:30;;;;;;;14.13;9.80;;;7.60;88.70;;;;;;5066321;28;20029;-83
2021/03/23 03:40:49;;;;;;;19.17;13.00;;;7.60;89.60;;;;;;5087312;28;20055;-83
2021/03/23 04:46:49;;;;;;;26.00;15.77;;;7.50;88.70;;;;;;5082009;28;20074;-82
2021/03/23 04:52:27;;;;;;;23.73;16.13;;;7.40;88.70;;;;;;5031740;28;20049;-85
2021/03/23 04:54:53;;;;;;;23.13;14.82;;;7.40;88.70;;;;;;5006864;28;20475;-85
2021/03/23 04:57:19;;;;;;;23.70;15.18;;;7.40;88.60;;;;;;4987791;28;20030;-85
2021/03/23 04:59:44;;;;;;;25.02;14.88;;;7.40;88.70;;;;;;5005505;28;20036;-85
2021/03/23 05:02:10;;;;;;;23.55;14.02;;;7.50;88.80;;;;;;4995368;28;20038;-84
2021/03/23 05:04:35;;;;;;;24.35;15.63;;;7.50;88.80;;;;;;4979184;28;20550;-86
2021/03/23 05:07:01;;;;;;;22.88;14.90;;;7.50;88.60;;;;;;5012499;28;20037;-85
2021/03/23 05:09:27;;;;;;;22.80;15.07;;;7.60;88.60;;;;;;5009241;28;20033;-85
2021/03/23 05:11:52;;;;;;;22.50;14.35;;;7.50;88.50;;;;;;4997447;28;20038;-84
2021/03/23 05:14:18;;;;;;;22.58;15.98;;;7.50;88.50;;;;;;4986207;28;20542;-85
2021/03/23 05:16:43;;;;;;;25.45;16.55;;;7.50;88.40;;;;;;4998719;28;20036;-84
2021/03/23 05:19:09;;;;;;;24.40;14.88;;;7.60;88.30;;;;;;4979046;28;20033;-85
2021/03/23 05:21:35;;;;;;;22.25;14.57;;;7.60;88.40;;;;;;5013805;28;20120;-85
2021/03/23 05:24:02;;;;;;;23.52;15.23;;;7.60;88.40;;;;;;5014989;28;20467;-85
2021/03/23 05:26:28;;;;;;;18.77;12.73;;;7.60;88.40;;;;;;5014607;28;20021;-85
2021/03/23 05:28:54;;;;;;;23.13;16.08;;;7.60;88.40;;;;;;5014729;28;20061;-85
2021/03/23 05:31:21;;;;;;;26.23;16.63;;;7.60;88.10;;;;;;5030890;28;20056;-84
2021/03/23 05:33:49;;;;;;;23.27;14.65;;;7.60;88.10;;;;;;5014747;28;20032;-85
2021/03/23 05:36:15;;;;;;;21.42;13.43;;;7.60;88.30;;;;;;5025671;28;20029;-85
2021/03/23 05:38:41;;;;;;;22.60;15.43;;;7.60;88.40;;;;;;5011516;28;20054;-85
2021/03/23 05:41:47;;;;;;;24.33;15.43;;;7.60;88.20;;;;;;5023446;28;20086;-85
2021/03/23 05:44:41;;;;;;;22.70;14.05;;;7.60;88.40;;;;;;5011293;28;20509;-85
2021/03/23 05:47:15;;;;;;;23.17;15.27;;;7.60;88.40;;;;;;5024717;28;20415;-85
2021/03/23 05:49:58;;;;;;;24.67;15.50;;;7.60;88.20;;;;;;5025069;28;20029;-85
2021/03/23 05:52:37;;;;;;;22.30;14.18;;;7.60;88.80;;;;;;5000448;28;20092;-85
2021/03/23 05:55:17;;;;;;;24.20;14.98;;;7.60;88.40;;;;;;5027695;28;20487;-85
2021/03/23 05:57:47;;;;;;;20.60;13.65;;;7.60;88.50;;;;;;5027963;28;20108;-85
2021/03/23 06:00:34;;;;;;;23.20;13.13;;;7.70;88.70;;;;;;5029559;28;20029;-85
2021/03/23 06:03:05;;;;;;;25.20;15.00;;;7.70;88.70;;;;;;5023580;28;20383;-85
2021/03/23 06:05:43;;;;;;;25.48;14.60;;;7.60;88.70;;;;;;5032352;28;20033;-86
2021/03/23 06:08:25;;;;;;;25.73;16.80;;;7.60;88.80;;;;;;5018516;28;20034;-86
2021/03/23 06:11:05;;;;;;;25.63;16.40;;;7.60;88.70;;;;;;4998277;28;20077;-85
2021/03/23 06:14:06;;;;;;;25.92;14.75;;;7.60;88.70;;;;;;5026108;28;20031;-85
2021/03/23 06:16:49;;;;;;;22.13;14.93;;;7.50;88.80;;;;;;5011060;28;20025;-85
2021/03/23 06:19:24;;;;;;;23.58;13.88;;;7.50;88.80;;;;;;5018553;28;20433;-86
2021/03/23 06:22:50;;;;;;;;;;;;;;;;;;;;;
2021/03/23 06:25:46;;;;;;;19.00;12.20;;;7.50;89.00;;;;;;5026983;28;20036;-85
2021/03/23 06:29:09;;;;;;;21.77;13.40;;;7.60;89.10;;;;;;5011189;28;20049;-85
2021/03/23 06:31:34;;;;;;;24.90;13.27;;;7.50;89.10;;;;;;4961896;28;20046;-85
2021/03/23 06:34:00;;;;;;;21.52;13.13;;;7.50;89.10;;;;;;4971267;28;20559;-85
2021/03/23 06:36:30;;;;;;;27.42;15.98;;;7.50;89.20;;;;;;4978276;28;20072;-85
2021/03/23 06:38:56;;;;;;;24.23;15.70;;;7.50;89.20;;;;;;5033193;28;20104;-86
2021/03/23 06:41:33;;;;;;;28.25;16.48;;;7.50;89.30;;;;;;5025904;28;20387;-88
2021/03/23 06:44:14;;;;;;;28.42;17.30;;;7.50;89.30;;;;;;5015273;28;20506;-84
2021/03/23 06:46:46;;;;;;;25.33;15.45;;;7.50;89.50;;;;;;5028464;28;20387;-85
2021/03/23 06:49:15;;;;;;;24.42;14.13;;;7.50;89.60;;;;;;5033103;23;20045;-87
2021/03/23 06:51:53;;;;;;;22.42;14.02;;;7.40;89.70;;;;;;5025301;28;20025;-86
2021/03/23 06:54:39;;;;;;;24.20;13.10;;;7.50;89.80;;;;;;5031040;28;20116;-86
2021/03/23 06:57:11;;;;;;;25.98;15.00;;;7.50;89.90;;;;;;5055272;28;20033;-86
2021/03/23 06:59:55;;;;;;;21.38;13.15;;;7.50;90.00;;;;;;5037387;28;20025;-84
2021/03/23 07:02:29;;;;;;;26.25;15.20;;;7.60;90.00;;;;;;5025815;28;20033;-85
2021/03/23 07:04:55;;;;;;;26.10;14.73;;;7.60;90.10;;;;;;5030460;28;20049;-85
2021/03/23 07:07:22;;;;;;;25.83;15.18;;;7.60;90.10;;;;;;5023009;28;20061;-84
2021/03/23 07:09:49;;;;;;;25.40;15.32;;;7.60;90.20;;;;;;4993356;28;20438;-85
2021/03/23 07:12:16;;;;;;;26.73;15.35;;;7.60;90.20;;;;;;5033835;28;20501;-86
2021/03/23 07:14:46;;;;;;;25.02;14.68;;;7.70;90.30;;;;;;5015442;28;20047;-86
2021/03/23 07:17:12;;;;;;;30.98;17.55;;;7.70;90.30;;;;;;5031244;28;20420;-85
2021/03/23 07:19:46;;;;;;;28.60;18.48;;;7.70;90.30;;;;;;5033594;28;20049;-85
2021/03/23 07:22:32;;;;;;;33.13;18.63;;;7.70;90.40;;;;;;5023246;28;20037;-84
2021/03/23 07:24:58;;;;;;;30.15;17.63;;;7.70;90.40;;;;;;5020371;28;20036;-84
2021/03/23 07:27:28;;;;;;;29.63;17.23;;;7.70;90.40;;;;;;5022614;28;20098;-84
2021/03/23 07:30:27;;;;;;;25.08;14.65;;;7.60;90.40;;;;;;5030879;28;20087;-85
2021/03/23 07:33:00;;;;;;;31.02;17.52;;;7.70;90.40;;;;;;5049744;28;20036;-86
2021/03/23 07:35:35;;;;;;;31.10;16.70;;;7.80;90.40;;;;;;5030407;28;20021;-85
2021/03/23 07:38:16;;;;;;;31.55;17.60;;;7.80;90.40;;;;;;5034014;28;20024;-85
2021/03/23 07:40:47;;;;;;;30.90;17.70;;;7.80;90.50;;;;;;5031199;28;20035;-84
2021/03/23 07:44:00;;;;;;;25.42;15.40;;;7.80;90.60;;;;;;5028630;28;20086;-85
2021/03/23 07:46:45;;;;;;;38.75;21.25;;;7.90;90.60;;;;;;4999197;28;20087;-85
2021/03/23 07:49:34;;;;;;;34.92;20.75;;;7.80;90.80;;;;;;5044390;28;20045;-85
2021/03/23 07:52:20;;;;;;;38.15;21.50;;;7.90;91.00;;;;;;5044282;28;20096;-84
2021/03/23 07:54:46;;;;;;;41.60;23.05;;;7.90;91.10;;;;;;5054014;28;20025;-85
2021/03/23 07:58:06;;;;;;;33.95;20.15;;;7.90;91.20;;;;;;5051271;28;20017;-86
2021/03/23 08:00:46;;;;;;;43.28;22.65;;;8.00;91.20;;;;;;5003141;28;20030;-85
2021/03/23 08:03:25;;;;;;;40.35;22.52;;;8.00;91.30;;;;;;5043774;28;20041;-84
2021/03/23 08:06:28;;;;;;;49.83;28.33;;;8.00;91.30;;;;;;5053398;28;20103;-86
2021/03/23 08:09:08;;;;;;;46.65;26.23;;;8.10;91.60;;;;;;5053538;28;20383;-84
2021/03/23 08:11:53;;;;;;;49.63;29.13;;;8.20;91.40;;;;;;5041013;28;20055;-85
2021/03/23 08:14:40;;;;;;;53.97;31.45;;;8.30;91.50;;;;;;5039956;28;20029;-86
2021/03/23 08:17:16;;;;;;;58.85;34.33;;;8.30;91.40;;;;;;5028625;28;20360;-84
2021/03/23 08:19:57;;;;;;;61.67;33.92;;;8.40;91.40;;;;;;5037451;28;20032;-84
2021/03/23 08:22:35;;;;;;;63.97;33.92;;;8.40;91.50;;;;;;5037331;28;20456;-84
2021/03/23 08:25:22;;;;;;;62.47;34.30;;;8.50;91.30;;;;;;5044485;28;20466;-85
2021/03/23 08:28:02;;;;;;;59.17;33.38;;;8.40;91.10;;;;;;5041349;28;20087;-83
2021/03/23 08:30:56;;;;;;;53.15;30.20;;;8.50;91.10;;;;;;5051122;28;20114;-84
2021/03/23 08:33:31;;;;;;;54.50;28.35;;;8.40;91.10;;;;;;5017667;28;20033;-83
2021/03/23 08:36:00;;;;;;;53.47;30.23;;;8.40;91.10;;;;;;5026298;28;20466;-83
2021/03/23 08:38:34;;;;;;;52.90;30.55;;;8.50;91.20;;;;;;5040609;28;20467;-83
2021/03/23 08:41:31;;;;;;;51.00;30.08;;;8.40;91.20;;;;;;5043769;28;20021;-83
2021/03/23 08:43:57;;;;;;;54.45;31.65;;;8.40;91.20;;;;;;5043885;28;20116;-82
2021/03/23 08:46:29;;;;;;;65.32;34.33;;;8.50;91.30;;;;;;5011731;28;20021;-82
2021/03/23 08:48:59;;;;;;;61.63;34.10;;;8.40;91.30;;;;;;5051198;28;20120;-82
2021/03/23 08:51:27;;;;;;;58.92;30.17;;;8.40;91.40;;;;;;5032652;28;20020;-81
2021/03/23 08:54:00;;;;;;;63.55;31.35;;;8.40;91.50;;;;;;5026868;28;20100;-82
2021/03/23 08:56:41;;;;;;;58.28;30.33;;;8.40;91.60;;;;;;5028901;28;20017;-82
2021/03/23 08:59:33;;;;;;;52.53;29.02;;;8.30;91.80;;;;;;5043902;28;20483;-82
2021/03/23 09:02:00;;;;;;;55.30;29.38;;;8.20;92.00;;;;;;5042976;28;20390;-82
2021/03/23 09:04:41;;;;;;;49.65;27.50;;;8.20;92.20;;;;;;5026971;28;20014;-85
2021/03/23 09:07:09;;;;;;;51.05;27.25;;;8.20;92.30;;;;;;5047918;28;20071;-85
2021/03/23 09:09:49;;;;;;;53.20;27.20;;;8.20;92.40;;;;;;5045026;28;20044;-85
2021/03/23 09:12:40;;;;;;;52.65;26.67;;;8.20;92.50;;;;;;5027251;28;20470;-86
2021/03/23 09:15:08;;;;;;;49.10;25.52;;;8.20;92.60;;;;;;5045643;28;20104;-85
2021/03/23 09:18:26;;;;;;;47.50;25.33;;;8.20;92.60;;;;;;5048350;28;20028;-84
2021/03/23 09:20:51;;;;;;;56.22;27.63;;;8.30;92.70;;;;;;5032475;28;20029;-85
2021/03/23 09:23:17;;;;;;;50.38;27.10;;;8.20;92.70;;;;;;5051046;28;20043;-85
2021/03/23 09:25:50;;;;;;;50.70;25.92;;;8.30;92.70;;;;;;5042876;28;20039;-86
2021/03/23 09:28:46;;;;;;;52.33;26.08;;;8.30;92.90;;;;;;5043857;28;20156;-85
2021/03/23 09:31:45;;;;;;;61.67;28.65;;;8.30;92.90;;;;;;5017741;28;20033;-85
2021/03/23 09:34:49;;;;;;;63.08;30.33;;;8.20;93.10;;;;;;5045248;28;20059;-84
2021/03/23 09:37:37;;;;;;;55.05;28.05;;;8.20;93.30;;;;;;5044396;28;20029;-86
2021/03/23 09:40:21;;;;;;;60.13;28.17;;;8.20;93.50;;;;;;5031317;28;20017;-86
2021/03/23 09:43:20;;;;;;;49.08;26.05;;;8.20;93.60;;;;;;5029998;28;20021;-85
2021/03/23 09:45:49;;;;;;;48.75;25.58;;;8.20;93.60;;;;;;5038616;28;20028;-85
2021/03/23 09:48:17;;;;;;;48.28;25.80;;;8.30;93.70;;;;;;5048929;28;20546;-85
2021/03/23 09:50:52;;;;;;;54.65;28.15;;;8.30;93.70;;;;;;5027940;28;20040;-85
2021/03/23 09:53:20;;;;;;;47.38;24.55;;;8.30;93.40;;;;;;5044015;28;20387;-85
2021/03/23 09:55:47;;;;;;;50.03;26.40;;;8.40;93.40;;;;;;5035596;28;20021;-86
2021/03/23 09:58:21;;;;;;;46.63;24.73;;;8.40;93.40;;;;;;5032407;28;20028;-85
2021/03/23 10:00:47;;;;;;;44.92;23.67;;;8.50;93.30;;;;;;5049125;28;20025;-86
2021/03/23 10:03:35;;;;;;;53.10;26.60;;;8.50;93.30;;;;;;5029998;28;20025;-86
2021/03/23 10:06:15;;;;;;;49.25;25.10;;;8.50;93.20;;;;;;5042389;28;20070;-85
2021/03/23 10:08:59;;;;;;;54.13;26.30;;;8.50;93.20;;;;;;5038761;28;20032;-85
2021/03/23 10:11:28;;;;;;;56.88;27.88;;;8.50;93.10;;;;;;5035157;28;20032;-85
2021/03/23 10:13:56;;;;;;;46.75;24.23;;;8.60;93.10;;;;;;5035354;28;20026;-86
2021/03/23 10:16:32;;;;;;;44.25;25.52;;;8.60;93.20;;;;;;5044677;28;20067;-86
2021/03/23 10:19:00;;;;;;;38.45;21.73;;;8.70;93.20;;;;;;5045764;28;20032;-86
2021/03/23 10:21:31;;;;;;;47.97;26.50;;;8.70;93.10;;;;;;5057218;28;20021;-85
2021/03/23 10:24:04;;;;;;;48.03;24.45;;;8.80;93.00;;;;;;5047922;28;20039;-86
2021/03/23 10:26:44;;;;;;;50.95;28.67;;;8.80;92.80;;;;;;5051461;28;20159;-86
2021/03/23 10:29:27;;;;;;;53.13;28.45;;;8.90;92.60;;;;;;5036628;28;20024;-87
2021/03/23 10:31:59;;;;;;;52.53;28.80;;;8.80;92.60;;;;;;5028060;28;20022;-86
2021/03/23 10:34:31;;;;;;;49.15;28.25;;;8.90;92.50;;;;;;5034930;28;20364;-86
2021/03/23 10:37:03;;;;;;;53.88;29.80;;;8.90;92.50;;;;;;5035984;28;20117;-86
2021/03/23 10:39:46;;;;;;;51.85;27.45;;;8.90;92.50;;;;;;5038923;28;20032;-86
2021/03/23 10:42:24;;;;;;;54.40;29.27;;;9.00;92.60;;;;;;5019291;28;20053;-86
2021/03/23 10:44:52;;;;;;;54.58;30.92;;;9.10;92.50;;;;;;5021417;28;20030;-86
2021/03/23 10:47:37;;;;;;;52.28;29.02;;;9.10;92.10;;;;;;5048501;28;20033;-86
2021/03/23 10:50:26;;;;;;;54.05;28.73;;;9.20;92.10;;;;;;5032657;28;20083;-84
2021/03/23 10:53:07;;;;;;;50.25;28.38;;;9.20;91.70;;;;;;5034111;28;20053;-84
2021/03/23 10:55:34;;;;;;;53.10;27.70;;;9.30;92.00;;;;;;5019649;28;20025;-84
2021/03/23 10:58:30;;;;;;;59.03;30.52;;;9.40;91.90;;;;;;5029727;28;20024;-85
2021/03/23 11:01:25;;;;;;;48.50;29.08;;;9.40;91.80;;;;;;5043584;28;20039;-84
2021/03/23 11:03:52;;;;;;;51.40;29.17;;;9.50;91.80;;;;;;5001746;28;20385;-84
2021/03/23 11:06:33;;;;;;;49.70;28.95;;;9.50;91.40;;;;;;5038477;28;20032;-84
2021/03/23 11:08:59;;;;;;;52.85;31.58;;;9.60;91.60;;;;;;5020827;28;20060;-84
2021/03/23 11:11:25;;;;;;;50.95;27.52;;;9.70;91.20;;;;;;5046103;28;20355;-84
2021/03/23 11:13:51;;;;;;;56.28;30.27;;;9.70;91.00;;;;;;5019817;28;20051;-84
2021/03/23 11:16:18;;;;;;;48.15;27.50;;;9.70;90.90;;;;;;5043384;28;20055;-84
2021/03/23 11:18:46;;;;;;;49.10;28.38;;;9.70;91.10;;;;;;5030944;28;20033;-84
2021/03/23 11:21:16;;;;;;;51.47;28.83;;;9.80;90.60;;;;;;5026189;28;20031;-84
2021/03/23 11:23:55;;;;;;;45.93;27.60;;;9.70;90.50;;;;;;5034595;28;20471;-84
2021/03/23 11:26:26;;;;;;;45.88;26.58;;;9.80;90.70;;;;;;5044447;28;20550;-84
2021/03/23 11:28:55;;;;;;;55.83;29.45;;;9.80;90.80;;;;;;5023224;28;20022;-84
2021/03/23 11:31:23;;;;;;;47.78;28.60;;;9.90;90.80;;;;;;5039168;28;20024;-84
2021/03/23 11:33:49;;;;;;;47.10;27.60;;;10.00;90.90;;;;;;5055360;28;20028;-84
2021/03/23 11:36:14;;;;;;;51.03;28.77;;;10.10;90.90;;;;;;5031666;28;20032;-84
2021/03/23 11:38:43;;;;;;;49.97;28.60;;;10.10;90.90;;;;;;5024871;28;20080;-84
2021/03/23 11:41:35;;;;;;;52.22;28.95;;;10.20;90.70;;;;;;5008777;28;20116;-83
2021/03/23 11:44:05;;;;;;;51.13;27.77;;;10.20;90.40;;;;;;5025648;28;20112;-84
2021/03/23 11:47:04;;;;;;;46.40;29.20;;;10.20;90.30;;;;;;5055171;28;20021;-84
2021/03/23 11:49:57;;;;;;;50.80;29.08;;;10.20;90.20;;;;;;5035375;28;20515;-84
2021/03/23 11:52:24;;;;;;;55.00;30.23;;;10.20;90.10;;;;;;5052174;28;20104;-83
2021/03/23 11:54:50;;;;;;;47.33;27.58;;;10.20;90.00;;;;;;5039231;28;20025;-83
2021/03/23 11:57:16;;;;;;;51.28;29.38;;;10.20;90.10;;;;;;5037133;28;20021;-82
2021/03/23 11:59:42;;;;;;;51.65;27.92;;;10.20;89.50;;;;;;5003951;28;20037;-84
2021/03/23 12:02:08;;;;;;;47.97;28.15;;;10.20;89.80;;;;;;5054649;28;20025;-84
2021/03/23 12:04:35;;;;;;;45.50;25.27;;;10.20;89.90;;;;;;5049978;28;20029;-84
2021/03/23 12:07:45;;;;;;;47.42;28.73;;;10.30;90.10;;;;;;5054089;28;20083;-84
2021/03/23 12:10:19;;;;;;;55.28;29.88;;;10.30;90.10;;;;;;5016520;28;20041;-82
2021/03/23 12:12:50;;;;;;;57.28;29.27;;;10.40;90.00;;;;;;5024259;28;20037;-83
2021/03/23 12:15:22;;;;;;;51.20;28.40;;;10.30;89.30;;;;;;5033391;28;20351;-82
2021/03/23 12:17:52;;;;;;;50.97;29.15;;;10.30;89.60;;;;;;5043214;28;20527;-81
2021/03/23 12:20:22;;;;;;;52.72;28.83;;;10.30;88.50;;;;;;5033250;28;20029;-82
2021/03/23 12:22:50;;;;;;;45.75;27.05;;;10.30;88.60;;;;;;5045203;28;20060;-83
2021/03/23 12:25:18;;;;;;;48.08;27.35;;;10.40;89.40;;;;;;5047326;28;20494;-82
2021/03/23 12:27:44;;;;;;;49.58;29.23;;;10.50;89.70;;;;;;5026027;28;20055;-82
2021/03/23 12:30:12;;;;;;;50.13;29.00;;;10.60;89.40;;;;;;4993150;28;20033;-82
2021/03/23 12:32:39;;;;;;;45.38;27.95;;;10.60;89.10;;;;;;5030824;28;20017;-83
2021/03/23 12:35:09;;;;;;;50.10;28.85;;;10.60;89.20;;;;;;5034920;28;20032;-82
2021/03/23 12:37:36;;;;;;;50.83;28.33;;;10.70;88.50;;;;;;5015452;28;20032;-83
2021/03/23 12:40:03;;;;;;;52.72;29.98;;;10.60;88.60;;;;;;5012669;28;20436;-83
2021/03/23 12:42:29;;;;;;;49.08;28.98;;;10.60;89.00;;;;;;5018282;28;20112;-83
2021/03/23 12:44:55;;;;;;;48.08;26.63;;;10.70;88.90;;;;;;5052906;28;20112;-84
2021/03/23 12:47:20;;;;;;;48.30;28.30;;;10.70;89.00;;;;;;5027679;28;20033;-84
2021/03/23 12:49:46;;;;;;;51.17;26.95;;;10.70;88.80;;;;;;5018490;28;20045;-83
2021/03/23 12:52:15;;;;;;;49.25;29.45;;;10.70;88.90;;;;;;5035725;28;20031;-83
2021/03/23 12:54:45;;;;;;;53.08;29.35;;;10.70;88.80;;;;;;5031973;28;20021;-83
2021/03/23 12:57:33;;;;;;;54.38;29.88;;;10.80;89.20;;;;;;5039481;28;20079;-83
2021/03/23 12:59:59;;;;;;;45.80;26.55;;;10.80;89.30;;;;;;5052080;28;20471;-82
2021/03/23 13:02:28;;;;;;;48.20;28.00;;;10.80;89.40;;;;;;5031769;28;20542;-84
2021/03/23 13:04:54;;;;;;;48.90;28.55;;;10.90;89.30;;;;;;5019561;28;20017;-83
2021/03/23 13:07:37;;;;;;;48.40;26.02;;;10.90;89.60;;;;;;5013715;28;20025;-83
2021/03/23 13:10:16;;;;;;;51.88;30.27;;;10.90;89.20;;;;;;5034350;28;20017;-83
2021/03/23 13:12:42;;;;;;;52.22;30.40;;;10.90;88.10;;;;;;5023043;28;20117;-84
2021/03/23 13:15:11;;;;;;;57.78;30.48;;;10.90;88.50;;;;;;4992103;28;20135;-84
2021/03/23 13:17:37;;;;;;;48.28;30.35;;;10.80;88.50;;;;;;5038723;28;20040;-84
2021/03/23 13:20:04;;;;;;;63.42;33.05;;;10.80;88.60;;;;;;5051595;28;20108;-84
2021/03/23 13:22:35;;;;;;;54.00;29.50;;;10.80;88.90;;;;;;5034638;28;20045;-84
2021/03/23 13:25:03;;;;;;;;;;;10.70;88.90;;;;;;5053052;28;20024;-86
2021/03/23 13:27:32;;;;;;;54.75;30.10;;;10.70;89.40;;;;;;5052263;28;19908;-86
2021/03/23 13:30:01;;;;;;;48.50;28.48;;;10.70;88.80;;;;;;5038482;28;20036;-85
2021/03/23 13:32:29;;;;;;;53.08;29.08;;;10.70;89.40;;;;;;5044442;28;20020;-86
2021/03/23 13:34:55;;;;;;;48.35;28.77;;;10.80;89.90;;;;;;5038850;28;20048;-86
2021/03/23 13:37:31;;;;;;;51.28;30.27;;;10.80;89.80;;;;;;5028574;28;20651;-85
2021/03/23 13:40:06;;;;;;;52.47;31.63;;;10.80;89.80;;;;;;5033255;28;20395;-85
2021/03/23 13:42:37;;;;;;;49.10;28.80;;;10.80;89.00;;;;;;5034508;28;20078;-85
2021/03/23 13:45:08;;;;;;;51.53;28.60;;;10.80;89.00;;;;;;5034899;28;20059;-86
2021/03/23 13:47:35;;;;;;;60.50;33.38;;;10.80;88.90;;;;;;5032404;28;20040;-85
2021/03/23 13:50:01;;;;;;;57.20;30.67;;;10.80;89.60;;;;;;5034218;28;20077;-85
2021/03/23 13:52:28;;;;;;;48.63;28.40;;;10.70;89.50;;;;;;5022696;28;20056;-86
2021/03/23 13:54:55;;;;;;;48.58;28.73;;;10.80;89.70;;;;;;5033143;28;20029;-85
2021/03/23 13:57:21;;;;;;;55.72;31.00;;;10.80;90.00;;;;;;5014822;28;20017;-84
2021/03/23 13:59:47;;;;;;;52.47;31.02;;;10.90;89.90;;;;;;5012153;28;20047;-85
2021/03/23 14:02:15;;;;;;;54.42;31.45;;;10.80;89.10;;;;;;5034406;28;20083;-85
2021/03/23 14:04:44;;;;;;;52.20;29.60;;;10.90;89.00;;;;;;5039442;28;20108;-86
2021/03/23 14:07:18;;;;;;;56.92;31.83;;;10.90;89.30;;;;;;5051327;28;20040;-85
2021/03/23 14:09:47;;;;;;;52.85;30.13;;;10.90;89.50;;;;;;5056513;28;20040;-85
2021/03/23 14:12:17;;;;;;;48.95;28.80;;;10.90;89.20;;;;;;5054398;28;20017;-85
2021/03/23 14:14:42;;;;;;;52.75;30.15;;;10.90;89.30;;;;;;5041889;28;20031;-86
2021/03/23 14:17:19;;;;;;;52.10;29.90;;;11.00;89.20;;;;;;5047950;28;20033;-86
2021/03/23 14:19:44;;;;;;;53.80;31.08;;;11.00;89.40;;;;;;5050933;28;20025;-85
2021/03/23 14:22:12;;;;;;;54.00;32.78;;;11.00;89.20;;;;;;5034514;28;20033;-86
2021/03/23 14:24:38;;;;;;;51.58;29.50;;;11.10;89.00;;;;;;5034435;28;20071;-86
2021/03/23 14:27:05;;;;;;;52.63;30.25;;;11.10;89.00;;;;;;5034608;28;20487;-85
2021/03/23 14:29:31;;;;;;;56.70;30.25;;;11.10;88.90;;;;;;5002045;28;20112;-85
2021/03/23 14:31:56;;;;;;;56.88;32.88;;;11.10;88.00;;;;;;5034877;28;20541;-85
2021/03/23 14:34:22;;;;;;;49.15;28.80;;;11.10;88.00;;;;;;5018433;28;20032;-86
2021/03/23 14:36:49;;;;;;;44.92;28.75;;;11.10;88.20;;;;;;5042263;28;20034;-86
2021/03/23 14:39:29;;;;;;;54.00;31.55;;;11.10;88.10;;;;;;5031592;28;20057;-85
2021/03/23 14:41:55;;;;;;;49.80;30.37;;;11.10;87.70;;;;;;5040824;28;20155;-86
2021/03/23 14:44:21;;;;;;;45.95;27.98;;;11.10;87.80;;;;;;5031294;28;20040;-85
2021/03/23 14:46:48;;;;;;;52.78;30.77;;;11.10;88.00;;;;;;5034954;28;20029;-85
2021/03/23 14:49:14;;;;;;;46.75;28.25;;;11.10;88.10;;;;;;5028746;28;20405;-85
2021/03/23 14:51:42;;;;;;;46.10;28.00;;;11.20;88.20;;;;;;5043195;28;20104;-86
2021/03/23 14:54:23;;;;;;;44.80;28.02;;;11.20;87.80;;;;;;5032315;28;20474;-85
2021/03/23 14:56:52;;;;;;;42.23;28.20;;;11.20;87.90;;;;;;5040945;28;20072;-85
2021/03/23 14:59:20;;;;;;;42.75;28.33;;;11.20;87.40;;;;;;5041552;28;20028;-86
2021/03/23 15:01:48;;;;;;;44.10;26.60;;;11.30;87.30;;;;;;5031199;28;20565;-85
2021/03/23 15:04:13;;;;;;;39.53;24.42;;;11.30;87.40;;;;;;5044318;28;20025;-85
2021/03/23 15:06:39;;;;;;;39.63;25.35;;;11.30;87.70;;;;;;5052967;28;20794;-86
2021/03/23 15:09:16;;;;;;;37.08;25.83;;;11.40;87.80;;;;;;5049630;28;20029;-85
2021/03/23 15:11:44;;;;;;;33.50;23.42;;;11.40;87.60;;;;;;5043959;28;20029;-85
2021/03/23 15:14:11;;;;;;;35.30;22.60;;;11.50;87.80;;;;;;5017347;28;20083;-86
2021/03/23 15:16:37;;;;;;;35.28;23.20;;;11.50;87.30;;;;;;5021689;28;20037;-85
2021/03/23 15:19:04;;;;;;;30.27;21.00;;;11.60;87.20;;;;;;5038371;28;20031;-85
2021/03/23 15:21:32;;;;;;;31.77;21.42;;;11.70;87.60;;;;;;5034075;28;20069;-85
2021/03/23 15:23:59;;;;;;;33.42;21.05;;;11.80;87.30;;;;;;5029840;28;20497;-85
2021/03/23 15:26:29;;;;;;;37.88;24.10;;;11.90;86.90;;;;;;5019078;28;20028;-86
2021/03/23 15:29:00;;;;;;;31.20;22.25;;;12.00;86.40;;;;;;5033445;28;20052;-86
2021/03/23 15:31:27;;;;;;;30.88;20.80;;;12.00;85.90;;;;;;5033725;28;20021;-83
2021/03/23 15:33:52;;;;;;;33.20;22.38;;;12.10;86.00;;;;;;5020230;28;20529;-84
2021/03/23 15:36:31;;;;;;;31.15;20.70;;;12.20;86.00;;;;;;5020538;28;20052;-85
2021/03/23 15:38:57;;;;;;;25.38;17.52;;;12.20;85.70;;;;;;5046404;28;20018;-85
2021/03/23 15:41:22;;;;;;;26.83;18.77;;;12.30;85.80;;;;;;5035716;28;20017;-84
2021/03/23 15:43:48;;;;;;;28.15;20.40;;;12.30;85.70;;;;;;5019907;28;20375;-86
2021/03/23 15:46:14;;;;;;;29.75;20.02;;;12.40;85.10;;;;;;5050608;28;20029;-85
2021/03/23 15:48:41;;;;;;;26.77;17.75;;;12.50;85.80;;;;;;5023098;28;20037;-85
2021/03/23 15:51:21;;;;;;;23.92;17.05;;;12.50;85.20;;;;;;5007317;28;20059;-85
2021/03/23 15:53:48;;;;;;;23.52;17.33;;;12.60;84.80;;;;;;5026986;28;20051;-87
2021/03/23 15:56:42;;;;;;;24.52;17.48;;;12.60;84.80;;;;;;5024040;28;20662;-86
2021/03/23 15:59:14;;;;;;;25.75;18.33;;;12.70;84.90;;;;;;5025835;28;20017;-84
2021/03/23 16:01:40;;;;;;;27.35;20.23;;;12.70;85.40;;;;;;5026993;28;20064;-86
2021/03/23 16:04:05;;;;;;;25.15;18.42;;;12.60;84.50;;;;;;5052961;28;20029;-86
2021/03/23 16:06:31;;;;;;;25.23;18.08;;;12.60;84.30;;;;;;5020531;28;20492;-86
2021/03/23 16:09:04;;;;;;;24.70;18.25;;;12.60;84.40;;;;;;5036554;28;20040;-86
2021/03/23 16:11:29;;;;;;;24.42;17.75;;;12.60;84.50;;;;;;5043344;28;20026;-86
2021/03/23 16:13:55;;;;;;;24.48;17.42;;;12.60;84.60;;;;;;5016363;28;20029;-86
2021/03/23 16:16:21;;;;;;;25.88;17.98;;;12.60;84.40;;;;;;5034260;28;20071;-86
2021/03/23 16:18:47;;;;;;;29.05;19.85;;;12.60;84.40;;;;;;5052127;23;20049;-86
2021/03/23 16:21:20;;;;;;;29.48;20.40;;;12.60;84.00;;;;;;5040204;28;20028;-86
2021/03/23 16:23:47;;;;;;;25.90;17.85;;;12.60;83.50;;;;;;5029185;28;20037;-87
2021/03/23 16:26:21;;;;;;;25.00;17.95;;;12.60;83.70;;;;;;5045307;28;20036;-85
2021/03/23 16:28:48;;;;;;;27.92;19.13;;;12.60;83.90;;;;;;5057884;28;20037;-86
2021/03/23 16:31:29;;;;;;;26.92;19.45;;;12.60;83.60;;;;;;5023610;28;20032;-85
2021/03/23 16:33:55;;;;;;;25.73;19.25;;;12.60;83.70;;;;;;5051818;28;20013;-86
2021/03/23 16:36:21;;;;;;;24.75;18.63;;;12.60;83.60;;;;;;5032740;28;20021;-85
2021/03/23 16:38:47;;;;;;;26.08;18.95;;;12.60;83.80;;;;;;5023922;28;20027;-86
2021/03/23 16:41:17;;;;;;;28.38;18.33;;;12.50;83.70;;;;;;5048051;28;20462;-85
2021/03/23 16:43:43;;;;;;;24.88;18.17;;;12.50;83.70;;;;;;5038914;28;20036;-85
2021/03/23 16:46:12;;;;;;;28.50;18.98;;;12.50;83.80;;;;;;5038141;28;20025;-86
2021/03/23 16:48:37;;;;;;;24.27;17.42;;;12.50;84.00;;;;;;5057977;28;20065;-85
2021/03/23 16:51:05;;;;;;;23.75;17.67;;;12.50;84.20;;;;;;5055156;28;20029;-85
2021/03/23 16:53:35;;;;;;;21.42;16.75;;;12.50;84.30;;;;;;5038504;28;20389;-85
2021/03/23 16:56:02;;;;;;;25.67;17.80;;;12.50;84.40;;;;;;5055391;28;20087;-85
2021/03/23 16:58:28;;;;;;;22.13;17.25;;;12.50;84.50;;;;;;5059343;28;20033;-85
2021/03/23 17:00:54;;;;;;;23.40;17.02;;;12.40;84.50;;;;;;5022809;28;20381;-85
2021/03/23 17:03:20;;;;;;;28.85;19.45;;;12.50;84.60;;;;;;5039422;28;20025;-85
2021/03/23 17:05:48;;;;;;;33.42;22.02;;;12.40;83.90;;;;;;5050353;28;20028;-85
2021/03/23 17:08:14;;;;;;;29.65;21.90;;;12.40;82.90;;;;;;5054702;28;20074;-85
2021/03/23 17:10:40;;;;;;;28.80;20.77;;;12.30;83.00;;;;;;5038664;28;20028;-84
2021/03/23 17:13:07;;;;;;;26.70;19.35;;;12.30;83.20;;;;;;5071487;28;20021;-85
2021/03/23 17:15:35;;;;;;;30.63;21.48;;;12.30;83.20;;;;;;5045471;28;20081;-86
2021/03/23 17:18:01;;;;;;;29.50;21.52;;;12.30;83.00;;;;;;5027484;28;20046;-86